createdAt,value
2023-05-23T00:00:11.178Z,17.25
2023-05-23T00:02:44.559Z,17.21
2023-05-23T00:05:15.093Z,17.19
2023-05-23T00:07:45.213Z,17.16
2023-05-23T00:10:14.568Z,17.17
2023-05-23T00:12:44.654Z,17.16
2023-05-23T00:15:13.334Z,17.15
2023-05-23T00:17:43.710Z,17.15
2023-05-23T00:20:13.573Z,17.17
2023-05-23T00:22:50.478Z,17.17
2023-05-23T00:25:22.374Z,17.16
2023-05-23T00:27:57.327Z,17.14
2023-05-23T00:30:26.046Z,17.14
2023-05-23T00:32:55.905Z,17.14
2023-05-23T00:35:24.763Z,17.13
2023-05-23T00:37:54.066Z,17.13
2023-05-23T00:40:23.304Z,17.10
2023-05-23T00:42:54.192Z,17.08
2023-05-23T00:45:23.522Z,17.07
2023-05-23T00:47:52.499Z,17.07
2023-05-23T00:50:23.017Z,17.06
2023-05-23T00:52:51.717Z,17.04
2023-05-23T00:55:20.537Z,17.02
2023-05-23T00:57:49.389Z,17.00
2023-05-23T01:00:20.142Z,17.00
2023-05-23T01:02:53.129Z,16.99
2023-05-23T01:05:24.530Z,16.97
2023-05-23T01:07:55.405Z,16.95
2023-05-23T01:10:27.492Z,16.90
2023-05-23T01:13:31.083Z,16.87
2023-05-23T01:16:08.005Z,16.85
2023-05-23T01:19:00.216Z,16.79
2023-05-23T01:21:30.031Z,16.71
2023-05-23T01:24:37.105Z,16.67
2023-05-23T01:27:48.090Z,16.64
2023-05-23T01:30:20.147Z,16.66
2023-05-23T01:32:52.349Z,16.67
2023-05-23T01:35:27.217Z,16.67
2023-05-23T01:37:56.187Z,16.63
2023-05-23T01:40:25.688Z,16.61
2023-05-23T01:42:56.902Z,16.64
2023-05-23T01:45:27.386Z,16.62
2023-05-23T01:47:56.327Z,16.59
2023-05-23T01:50:26.861Z,16.55
2023-05-23T01:52:55.888Z,16.55
2023-05-23T01:55:26.396Z,16.51
2023-05-23T01:57:56.531Z,16.51
2023-05-23T02:00:25.307Z,16.49
2023-05-23T02:02:54.392Z,16.48
2023-05-23T02:05:24.611Z,16.46
2023-05-23T02:07:53.717Z,16.45
2023-05-23T02:10:23.238Z,16.45
2023-05-23T02:12:52.436Z,16.45
2023-05-23T02:15:21.507Z,16.44
2023-05-23T02:17:51.671Z,16.40
2023-05-23T02:20:22.055Z,16.37
2023-05-23T02:22:50.632Z,16.35
2023-05-23T02:25:19.647Z,16.35
2023-05-23T02:27:48.474Z,16.32
2023-05-23T02:30:18.278Z,16.28
2023-05-23T02:32:47.268Z,16.25
2023-05-23T02:35:16.484Z,16.22
2023-05-23T02:37:45.027Z,16.17
2023-05-23T02:40:13.835Z,16.14
2023-05-23T02:42:42.992Z,16.12
2023-05-23T02:45:11.940Z,16.05
2023-05-23T02:47:41.631Z,16.02
2023-05-23T02:50:11.548Z,15.96
2023-05-23T02:52:41.958Z,15.92
2023-05-23T02:55:10.866Z,15.88
2023-05-23T02:57:41.581Z,15.87
2023-05-23T03:00:11.887Z,15.85
2023-05-23T03:02:42.668Z,15.85
2023-05-23T03:05:11.446Z,15.85
2023-05-23T03:07:40.662Z,15.87
2023-05-23T03:10:10.732Z,15.87
2023-05-23T03:12:40.711Z,15.88
2023-05-23T03:15:11.259Z,15.89
2023-05-23T03:17:42.978Z,15.95
2023-05-23T03:20:12.209Z,16.00
2023-05-23T03:22:42.927Z,16.05
2023-05-23T03:25:11.751Z,16.06
2023-05-23T03:27:41.929Z,16.06
2023-05-23T03:30:11.914Z,16.08
2023-05-23T03:32:41.097Z,16.11
2023-05-23T03:35:11.231Z,16.15
2023-05-23T03:37:42.021Z,16.20
2023-05-23T03:40:11.803Z,16.21
2023-05-23T03:42:40.644Z,16.27
2023-05-23T03:45:11.147Z,16.32
2023-05-23T03:47:40.683Z,16.36
2023-05-23T03:50:10.867Z,16.41
2023-05-23T03:52:40.283Z,16.44
2023-05-23T03:55:11.071Z,16.50
2023-05-23T03:57:40.727Z,16.53
2023-05-23T04:00:14.045Z,16.57
2023-05-23T04:02:46.504Z,16.59
2023-05-23T04:05:17.852Z,16.64
2023-05-23T04:07:46.808Z,16.65
2023-05-23T04:10:16.239Z,16.71
2023-05-23T04:12:45.650Z,16.74
2023-05-23T04:15:17.690Z,16.80
2023-05-23T04:17:48.496Z,16.86
2023-05-23T04:20:18.961Z,16.92
2023-05-23T04:22:48.015Z,16.95
2023-05-23T04:25:18.305Z,17.02
2023-05-23T04:27:49.220Z,17.05
2023-05-23T04:30:19.249Z,17.10
2023-05-23T04:32:49.715Z,17.15
2023-05-23T04:35:18.870Z,17.20
2023-05-23T04:37:47.654Z,17.25
2023-05-23T04:40:16.863Z,17.32
2023-05-23T04:42:51.668Z,17.40
2023-05-23T04:45:31.667Z,17.49
2023-05-23T04:48:02.811Z,17.56
2023-05-23T04:50:40.331Z,17.63
2023-05-23T04:53:11.036Z,17.70
2023-05-23T04:55:41.118Z,17.76
2023-05-23T04:58:12.800Z,17.83
2023-05-23T05:00:41.816Z,17.89
2023-05-23T05:03:11.947Z,18.01
2023-05-23T05:05:42.553Z,18.15
2023-05-23T05:08:13.331Z,18.29
2023-05-23T05:10:42.674Z,18.40
2023-05-23T05:13:12.467Z,18.48
2023-05-23T05:15:45.909Z,18.60
2023-05-23T05:18:16.459Z,18.73
2023-05-23T05:20:45.335Z,18.79
2023-05-23T05:23:14.839Z,18.84
2023-05-23T05:25:43.614Z,18.92
2023-05-23T05:28:13.417Z,19.03
2023-05-23T05:30:45.826Z,19.27
2023-05-23T05:33:14.959Z,19.52
2023-05-23T05:35:44.625Z,19.82
2023-05-23T05:38:15.102Z,20.11
2023-05-23T05:40:43.941Z,20.27
2023-05-23T05:43:13.245Z,20.34
2023-05-23T05:45:43.422Z,20.40
2023-05-23T05:48:12.635Z,20.42
2023-05-23T05:50:43.455Z,20.43
2023-05-23T05:53:13.035Z,20.44
2023-05-23T05:55:42.631Z,20.53
2023-05-23T05:58:14.583Z,20.58
2023-05-23T06:00:45.254Z,20.58
2023-05-23T06:03:15.564Z,20.57
2023-05-23T06:05:48.940Z,20.62
2023-05-23T06:08:19.923Z,20.66
2023-05-23T06:10:49.012Z,20.80
2023-05-23T06:13:18.471Z,21.09
2023-05-23T06:15:49.450Z,21.38
2023-05-23T06:18:20.393Z,21.64
2023-05-23T06:20:50.413Z,21.97
2023-05-23T06:23:19.497Z,22.25
2023-05-23T06:25:49.003Z,22.56
2023-05-23T06:28:20.288Z,22.78
2023-05-23T06:30:50.523Z,22.91
2023-05-23T06:33:20.552Z,22.95
2023-05-23T06:35:50.779Z,23.10
2023-05-23T06:38:20.007Z,23.29
2023-05-23T06:40:49.014Z,23.22
2023-05-23T06:43:18.101Z,23.21
2023-05-23T06:45:48.592Z,23.27
2023-05-23T06:48:18.794Z,23.23
2023-05-23T06:50:48.916Z,23.08
2023-05-23T06:53:19.194Z,22.89
2023-05-23T06:55:49.362Z,22.77
2023-05-23T06:58:22.239Z,22.69
2023-05-23T07:00:50.839Z,22.65
2023-05-23T07:03:21.223Z,22.62
2023-05-23T07:05:51.315Z,22.70
2023-05-23T07:08:21.151Z,22.90
2023-05-23T07:10:54.586Z,23.29
2023-05-23T07:13:37.223Z,23.69
2023-05-23T07:16:06.820Z,24.16
2023-05-23T07:18:38.844Z,24.51
2023-05-23T07:21:08.021Z,24.85
2023-05-23T07:23:38.491Z,25.08
2023-05-23T07:26:09.097Z,25.17
2023-05-23T07:28:46.064Z,25.40
2023-05-23T07:31:15.110Z,25.65
2023-05-23T07:33:44.054Z,25.95
2023-05-23T07:36:14.580Z,26.15
2023-05-23T07:38:43.415Z,26.26
2023-05-23T07:41:12.650Z,26.21
2023-05-23T07:43:41.997Z,26.13
2023-05-23T07:46:11.444Z,26.10
2023-05-23T07:48:41.034Z,26.01
2023-05-23T07:51:09.638Z,25.82
2023-05-23T07:53:40.378Z,25.79
2023-05-23T07:56:14.676Z,25.85
2023-05-23T07:58:44.285Z,25.85
2023-05-23T08:01:12.674Z,25.84
2023-05-23T08:03:47.758Z,25.93
2023-05-23T08:06:18.470Z,25.97
2023-05-23T08:08:48.958Z,26.00
2023-05-23T08:11:17.961Z,26.21
2023-05-23T08:13:48.698Z,26.47
2023-05-23T08:16:36.638Z,26.74
2023-05-23T08:19:07.808Z,27.14
2023-05-23T08:21:36.710Z,27.14
2023-05-23T08:24:06.177Z,27.26
2023-05-23T08:26:37.394Z,27.31
2023-05-23T08:29:09.280Z,27.45
2023-05-23T08:31:38.231Z,27.50
2023-05-23T08:34:07.815Z,27.34
2023-05-23T08:36:40.483Z,27.30
2023-05-23T08:39:13.338Z,27.26
2023-05-23T08:41:50.426Z,27.28
2023-05-23T08:44:19.214Z,27.33
2023-05-23T08:46:49.902Z,27.26
2023-05-23T08:49:22.917Z,27.21
2023-05-23T08:51:52.551Z,27.27
2023-05-23T08:54:22.909Z,27.35
2023-05-23T08:56:51.999Z,27.28
2023-05-23T08:59:20.790Z,27.28
2023-05-23T09:01:50.109Z,27.39
2023-05-23T09:04:19.098Z,27.45
2023-05-23T09:06:53.782Z,27.38
2023-05-23T09:09:22.749Z,27.21
2023-05-23T09:11:52.161Z,27.10
2023-05-23T09:14:22.318Z,27.04
2023-05-23T09:16:51.611Z,27.02
2023-05-23T09:19:23.368Z,26.91
2023-05-23T09:21:54.446Z,26.70
2023-05-23T09:24:27.663Z,26.59
2023-05-23T09:26:56.743Z,26.49
2023-05-23T09:29:25.490Z,26.44
2023-05-23T09:31:57.887Z,26.28
2023-05-23T09:34:26.560Z,26.24
2023-05-23T09:36:55.793Z,26.25
2023-05-23T09:39:25.093Z,26.23
2023-05-23T09:41:54.576Z,26.25
2023-05-23T09:44:26.147Z,26.18
2023-05-23T09:46:57.231Z,26.10
2023-05-23T09:49:27.017Z,26.08
2023-05-23T09:51:59.657Z,25.95
2023-05-23T09:54:28.092Z,25.86
2023-05-23T09:56:56.709Z,25.81
2023-05-23T09:59:25.637Z,25.76
2023-05-23T10:01:56.624Z,25.76
2023-05-23T10:04:25.453Z,25.77
2023-05-23T10:06:59.733Z,25.75
2023-05-23T10:09:28.574Z,25.70
2023-05-23T10:12:20.389Z,25.64
2023-05-23T10:14:53.509Z,25.57
2023-05-23T10:17:38.467Z,25.45
2023-05-23T10:20:16.175Z,25.44
2023-05-23T10:22:45.471Z,25.43
2023-05-23T10:25:15.088Z,25.40
2023-05-23T10:27:44.058Z,25.38
2023-05-23T10:30:13.699Z,25.29
2023-05-23T10:32:42.721Z,25.21
2023-05-23T10:35:52.522Z,25.23
2023-05-23T10:38:57.572Z,25.29
2023-05-23T10:41:45.191Z,25.19
2023-05-23T10:44:27.089Z,25.02
2023-05-23T10:46:58.547Z,24.92
2023-05-23T10:49:46.197Z,24.95
2023-05-23T10:52:16.168Z,24.96
2023-05-23T10:54:54.282Z,24.94
2023-05-23T10:57:27.502Z,24.95
2023-05-23T10:59:56.498Z,24.94
2023-05-23T11:02:27.889Z,24.84
2023-05-23T11:05:24.560Z,24.73
2023-05-23T11:08:17.592Z,24.72
2023-05-23T11:10:53.552Z,24.84
2023-05-23T11:13:22.889Z,24.85
2023-05-23T11:15:51.901Z,24.78
2023-05-23T11:18:26.561Z,24.74
2023-05-23T11:20:55.643Z,24.77
2023-05-23T11:23:25.430Z,24.86
2023-05-23T11:25:56.742Z,24.87
2023-05-23T11:28:26.138Z,24.81
2023-05-23T11:30:56.895Z,24.72
2023-05-23T11:33:27.274Z,24.68
2023-05-23T11:35:56.238Z,24.68
2023-05-23T11:38:25.183Z,24.71
2023-05-23T11:40:53.662Z,24.71
2023-05-23T11:43:22.851Z,24.73
2023-05-23T11:45:51.690Z,24.76
2023-05-23T11:48:21.091Z,24.80
2023-05-23T11:50:53.761Z,24.80
2023-05-23T11:53:26.692Z,24.79
2023-05-23T11:56:00.971Z,24.79
2023-05-23T11:58:32.896Z,24.82
2023-05-23T12:01:08.178Z,24.86
2023-05-23T12:03:48.454Z,24.85
2023-05-23T12:06:19.327Z,24.82
2023-05-23T12:08:49.630Z,24.84
2023-05-23T12:11:18.940Z,24.86
2023-05-23T12:13:48.129Z,24.90
2023-05-23T12:16:17.097Z,24.94
2023-05-23T12:18:46.217Z,24.96
2023-05-23T12:21:15.543Z,24.89
2023-05-23T12:23:44.869Z,24.84
2023-05-23T12:26:13.538Z,24.79
2023-05-23T12:28:47.300Z,24.77
2023-05-23T12:31:21.322Z,24.78
2023-05-23T12:33:53.130Z,24.83
2023-05-23T12:36:24.766Z,24.86
2023-05-23T12:38:53.556Z,24.89
2023-05-23T12:41:22.573Z,24.93
2023-05-23T12:43:55.492Z,24.94
2023-05-23T12:46:25.953Z,24.91
2023-05-23T12:48:55.052Z,24.92
2023-05-23T12:51:24.015Z,24.94
2023-05-23T12:53:54.384Z,24.95
2023-05-23T12:56:23.095Z,24.97
2023-05-23T12:58:53.369Z,24.98
2023-05-23T13:01:21.791Z,24.95
2023-05-23T13:03:50.480Z,24.92
2023-05-23T13:06:19.689Z,24.91
2023-05-23T13:08:50.512Z,24.90
2023-05-23T13:11:20.324Z,24.90
2023-05-23T13:13:50.574Z,24.88
2023-05-23T13:16:20.347Z,24.86
2023-05-23T13:18:49.213Z,24.81
2023-05-23T13:21:18.358Z,24.80
2023-05-23T13:23:47.333Z,24.83
2023-05-23T13:26:16.935Z,24.86
2023-05-23T13:28:45.523Z,24.88
2023-05-23T13:31:14.537Z,24.90
2023-05-23T13:33:43.641Z,24.88
2023-05-23T13:36:12.235Z,24.85
2023-05-23T13:38:44.200Z,24.76
2023-05-23T13:41:13.801Z,24.75
2023-05-23T13:43:42.706Z,24.74
2023-05-23T13:46:12.938Z,24.73
2023-05-23T13:48:42.021Z,24.72
2023-05-23T13:51:10.676Z,24.73
2023-05-23T13:53:39.759Z,24.80
2023-05-23T13:56:10.682Z,24.84
2023-05-23T13:58:39.845Z,24.87
2023-05-23T14:01:09.704Z,24.86
2023-05-23T14:03:38.578Z,24.86
2023-05-23T14:06:08.003Z,24.86
2023-05-23T14:08:37.344Z,24.82
2023-05-23T14:11:07.082Z,24.81
2023-05-23T14:13:37.340Z,24.80
2023-05-23T14:16:06.357Z,24.79
2023-05-23T14:18:35.793Z,24.73
2023-05-23T14:21:04.887Z,24.74
2023-05-23T14:23:34.629Z,24.77
2023-05-23T14:26:05.174Z,24.77
2023-05-23T14:28:35.274Z,24.78
2023-05-23T14:31:04.131Z,24.77
2023-05-23T14:33:36.165Z,24.76
2023-05-23T14:36:06.996Z,24.74
2023-05-23T14:38:35.822Z,24.73
2023-05-23T14:41:04.540Z,24.81
2023-05-23T14:43:33.081Z,24.89
2023-05-23T14:46:02.361Z,24.94
2023-05-23T14:48:31.177Z,24.96
2023-05-23T14:51:01.531Z,24.96
2023-05-23T14:53:31.153Z,24.93
2023-05-23T14:56:00.544Z,24.92
2023-05-23T14:58:29.567Z,24.90
2023-05-23T15:00:58.502Z,24.90
2023-05-23T15:03:28.119Z,24.87
2023-05-23T15:05:56.678Z,24.85
2023-05-23T15:08:27.562Z,24.85
2023-05-23T15:10:56.344Z,24.84
2023-05-23T15:13:25.762Z,24.83
2023-05-23T15:15:54.754Z,24.81
2023-05-23T15:18:38.928Z,24.78
2023-05-23T15:20:55.221Z,24.74
2023-05-23T15:23:24.494Z,24.71
2023-05-23T15:25:55.026Z,24.64
2023-05-23T15:28:24.773Z,24.60
2023-05-23T15:30:54.091Z,24.60
2023-05-23T15:33:24.380Z,24.61
2023-05-23T15:35:53.557Z,24.60
2023-05-23T15:38:22.272Z,24.59
2023-05-23T15:40:52.842Z,24.56
2023-05-23T15:43:21.870Z,24.55
2023-05-23T15:45:51.488Z,24.54
2023-05-23T15:48:20.707Z,24.52
2023-05-23T15:50:49.640Z,24.52
2023-05-23T15:53:18.366Z,24.53
2023-05-23T15:55:46.872Z,24.52
2023-05-23T15:58:15.861Z,24.54
2023-05-23T16:00:44.642Z,24.52
2023-05-23T16:03:13.297Z,24.53
2023-05-23T16:05:43.557Z,24.54
2023-05-23T16:08:12.603Z,24.53
2023-05-23T16:10:41.754Z,24.51
2023-05-23T16:13:11.075Z,24.48
2023-05-23T16:15:40.530Z,24.44
2023-05-23T16:18:15.307Z,24.38
2023-05-23T16:20:45.983Z,24.36
2023-05-23T16:23:15.814Z,24.33
2023-05-23T16:25:45.160Z,24.33
2023-05-23T16:28:13.736Z,24.33
2023-05-23T16:30:43.027Z,24.33
2023-05-23T16:33:13.538Z,24.23
2023-05-23T16:35:42.437Z,24.15
2023-05-23T16:38:11.988Z,23.98
2023-05-23T16:40:44.309Z,23.87
2023-05-23T16:43:13.060Z,23.79
2023-05-23T16:45:42.324Z,23.73
2023-05-23T16:48:11.384Z,23.67
2023-05-23T16:50:41.615Z,23.64
2023-05-23T16:53:11.652Z,23.61
2023-05-23T16:55:41.280Z,23.58
2023-05-23T16:58:12.107Z,23.53
2023-05-23T17:00:41.111Z,23.52
2023-05-23T17:03:10.276Z,23.50
2023-05-23T17:05:41.005Z,23.49
2023-05-23T17:08:10.126Z,23.48
2023-05-23T17:10:41.070Z,23.47
2023-05-23T17:13:10.186Z,23.48
2023-05-23T17:15:39.803Z,23.46
2023-05-23T17:18:09.002Z,23.44
2023-05-23T17:20:37.904Z,23.42
2023-05-23T17:23:06.802Z,23.40
2023-05-23T17:25:35.870Z,23.39
2023-05-23T17:28:06.167Z,23.39
2023-05-23T17:30:39.850Z,23.36
2023-05-23T17:33:10.465Z,23.33
2023-05-23T17:35:39.518Z,23.30
2023-05-23T17:38:08.417Z,23.28
2023-05-23T17:40:40.079Z,23.28
2023-05-23T17:43:08.962Z,23.25
2023-05-23T17:45:39.067Z,23.24
2023-05-23T17:48:07.769Z,23.24
2023-05-23T17:50:37.789Z,23.23
2023-05-23T17:53:06.547Z,23.21
2023-05-23T17:55:35.262Z,23.17
2023-05-23T17:58:04.663Z,23.15
2023-05-23T18:00:34.831Z,23.13
2023-05-23T18:03:04.252Z,23.11
2023-05-23T18:05:33.066Z,23.07
2023-05-23T18:08:02.263Z,23.02
2023-05-23T18:10:32.790Z,22.99
2023-05-23T18:13:02.230Z,22.96
2023-05-23T18:15:30.797Z,22.92
2023-05-23T18:18:00.041Z,22.87
2023-05-23T18:20:28.776Z,22.82
2023-05-23T18:22:57.387Z,22.78
2023-05-23T18:25:29.412Z,22.75
2023-05-23T18:27:59.084Z,22.71
2023-05-23T18:30:29.303Z,22.66
2023-05-23T18:32:58.799Z,22.58
2023-05-23T18:35:28.035Z,22.48
2023-05-23T18:37:56.414Z,22.40
2023-05-23T18:40:26.762Z,22.34
2023-05-23T18:42:55.430Z,22.22
2023-05-23T18:45:23.919Z,22.13
2023-05-23T18:47:53.006Z,22.01
2023-05-23T18:50:21.854Z,21.95
2023-05-23T18:52:51.768Z,21.89
2023-05-23T18:55:20.759Z,21.80
2023-05-23T18:57:49.553Z,21.72
2023-05-23T19:00:19.280Z,21.68
2023-05-23T19:02:49.970Z,21.62
2023-05-23T19:05:18.801Z,21.55
2023-05-23T19:07:47.513Z,21.49
2023-05-23T19:10:16.469Z,21.44
2023-05-23T19:12:46.117Z,21.37
2023-05-23T19:15:14.871Z,21.24
2023-05-23T19:17:44.019Z,21.11
2023-05-23T19:20:16.535Z,21.04
2023-05-23T19:22:51.470Z,20.97
2023-05-23T19:25:17.636Z,20.96
2023-05-23T19:27:46.117Z,20.90
2023-05-23T19:30:15.869Z,20.79
2023-05-23T19:32:44.662Z,20.71
2023-05-23T19:35:16.582Z,20.67
2023-05-23T19:37:45.406Z,20.65
2023-05-23T19:40:14.213Z,20.62
2023-05-23T19:42:42.869Z,20.58
2023-05-23T19:45:13.966Z,20.55
2023-05-23T19:47:43.307Z,20.56
2023-05-23T19:50:12.330Z,20.52
2023-05-23T19:52:41.870Z,20.49
2023-05-23T19:55:10.771Z,20.45
2023-05-23T19:57:39.457Z,20.43
2023-05-23T20:00:10.607Z,20.38
2023-05-23T20:02:39.868Z,20.33
2023-05-23T20:05:10.265Z,20.33
2023-05-23T20:07:39.537Z,20.29
2023-05-23T20:10:09.138Z,20.28
2023-05-23T20:12:38.644Z,20.19
2023-05-23T20:15:08.559Z,20.11
2023-05-23T20:17:37.665Z,20.04
2023-05-23T20:20:08.612Z,19.98
2023-05-23T20:22:38.988Z,19.94
2023-05-23T20:25:10.003Z,19.92
2023-05-23T20:27:38.554Z,19.88
2023-05-23T20:30:09.640Z,19.86
2023-05-23T20:32:38.802Z,19.80
2023-05-23T20:35:08.716Z,19.73
2023-05-23T20:37:39.194Z,19.66
2023-05-23T20:40:09.958Z,19.61
2023-05-23T20:42:39.374Z,19.55
2023-05-23T20:45:09.715Z,19.50
2023-05-23T20:47:41.363Z,19.43
2023-05-23T20:50:11.307Z,19.39
2023-05-23T20:52:42.019Z,19.35
2023-05-23T20:55:11.735Z,19.29
2023-05-23T20:57:41.959Z,19.28
2023-05-23T21:00:13.083Z,19.25
2023-05-23T21:02:42.823Z,19.23
2023-05-23T21:05:12.144Z,19.23
2023-05-23T21:07:41.008Z,19.22
2023-05-23T21:10:10.853Z,19.19
2023-05-23T21:12:39.517Z,19.15
2023-05-23T21:15:09.541Z,19.13
2023-05-23T21:17:39.251Z,19.04
2023-05-23T21:20:10.678Z,18.96
2023-05-23T21:22:40.027Z,18.92
2023-05-23T21:25:09.114Z,18.90
2023-05-23T21:27:39.156Z,18.88
2023-05-23T21:30:09.255Z,18.88
2023-05-23T21:32:38.108Z,18.81
2023-05-23T21:35:08.452Z,18.75
2023-05-23T21:37:37.138Z,18.74
2023-05-23T21:40:08.723Z,18.72
2023-05-23T21:42:38.216Z,18.67
2023-05-23T21:45:08.919Z,18.56
2023-05-23T21:47:37.768Z,18.50
2023-05-23T21:50:07.898Z,18.47
2023-05-23T21:52:36.631Z,18.46
2023-05-23T21:55:05.776Z,18.42
2023-05-23T21:57:35.452Z,18.39
2023-05-23T22:00:05.483Z,18.37
2023-05-23T22:02:37.487Z,18.33
2023-05-23T22:05:07.640Z,18.32
2023-05-23T22:07:37.725Z,18.30
2023-05-23T22:10:08.215Z,18.26
2023-05-23T22:12:37.512Z,18.23
2023-05-23T22:15:08.416Z,18.18
2023-05-23T22:17:40.044Z,18.18
2023-05-23T22:20:11.532Z,18.16
2023-05-23T22:22:41.446Z,18.16
2023-05-23T22:25:10.700Z,18.12
2023-05-23T22:27:41.024Z,18.08
2023-05-23T22:30:10.617Z,18.02
2023-05-23T22:32:39.206Z,17.98
2023-05-23T22:35:09.156Z,17.94
2023-05-23T22:37:38.537Z,17.94
2023-05-23T22:40:10.084Z,17.90
2023-05-23T22:42:40.123Z,17.91
2023-05-23T22:45:10.992Z,17.95
2023-05-23T22:47:41.728Z,17.98
2023-05-23T22:50:11.712Z,17.97
2023-05-23T22:52:41.109Z,17.91
2023-05-23T22:55:10.708Z,17.86
2023-05-23T22:57:39.276Z,17.85
2023-05-23T23:00:11.064Z,17.82
2023-05-23T23:02:40.269Z,17.83
2023-05-23T23:05:11.950Z,17.82
2023-05-23T23:07:41.001Z,17.77
2023-05-23T23:10:10.532Z,17.72
2023-05-23T23:12:39.792Z,17.75
2023-05-23T23:15:09.743Z,17.76
2023-05-23T23:17:38.560Z,17.74
2023-05-23T23:20:08.730Z,17.74
2023-05-23T23:22:38.405Z,17.68
2023-05-23T23:25:11.421Z,17.60
2023-05-23T23:27:40.623Z,17.55
2023-05-23T23:30:10.912Z,17.56
2023-05-23T23:32:40.936Z,17.53
2023-05-23T23:35:10.368Z,17.45
2023-05-23T23:37:39.373Z,17.44
2023-05-23T23:40:10.439Z,17.41
2023-05-23T23:42:39.103Z,17.34
2023-05-23T23:45:10.178Z,17.28
2023-05-23T23:47:38.843Z,17.31
2023-05-23T23:50:09.111Z,17.31
2023-05-23T23:52:38.671Z,17.32
2023-05-23T23:55:08.390Z,17.31
2023-05-23T23:57:37.475Z,17.29
